Time;durP1;ratioP1;P1;durP2;ratioP2;P2;SDS_P1;SDS_P2;PMS_P1;PMS_P2;Temp;Humidity;BMP_temperature;BMP_pressure;BME280_temperature;BME280_humidity;BME280_pressure;Samples;Min_cycle;Max_cycle;Signal;HPM_P1;HPM_P2
2022/07/25 00:00:08;;;;;;;8.32;6.25;;;27.50;88.50;;;;;;5035514;28;20917;-24
2022/07/25 00:02:34;;;;;;;6.70;6.10;;;27.50;88.50;;;;;;5035386;28;20037;-24
2022/07/25 00:05:00;;;;;;;6.25;5.65;;;27.50;88.50;;;;;;5034910;28;20083;-24
2022/07/25 00:07:26;;;;;;;7.28;5.57;;;27.50;88.50;;;;;;5034569;28;20013;-24
2022/07/25 00:09:52;;;;;;;6.30;5.70;;;27.50;88.50;;;;;;5034322;28;20368;-24
2022/07/25 00:12:18;;;;;;;6.13;5.53;;;27.40;88.40;;;;;;5017022;28;20533;-24
2022/07/25 00:14:43;;;;;;;6.25;5.65;;;27.40;88.40;;;;;;5034397;28;20033;-25
2022/07/25 00:17:10;;;;;;;6.35;5.75;;;27.50;88.50;;;;;;5034315;28;20427;-24
2022/07/25 00:19:35;;;;;;;5.97;5.47;;;27.50;88.50;;;;;;5034226;28;20080;-24
2022/07/25 00:22:01;;;;;;;6.03;5.35;;;27.50;88.50;;;;;;5034324;28;20475;-24
2022/07/25 00:24:27;;;;;;;8.52;5.43;;;27.50;88.40;;;;;;5034384;28;20108;-24
2022/07/25 00:26:52;;;;;;;6.35;5.72;;;27.50;88.50;;;;;;5034189;28;20041;-24
2022/07/25 00:29:18;;;;;;;6.18;5.53;;;27.40;88.50;;;;;;5034016;28;20029;-24
2022/07/25 00:31:44;;;;;;;5.65;5.15;;;27.40;88.50;;;;;;5034171;28;20406;-24
2022/07/25 00:34:09;;;;;;;5.93;5.43;;;27.40;88.40;;;;;;5033995;28;20421;-24
2022/07/25 00:36:35;;;;;;;6.45;5.85;;;27.40;88.50;;;;;;5034148;28;20037;-24
2022/07/25 00:39:01;;;;;;;5.70;5.15;;;27.40;88.40;;;;;;5034009;28;20414;-24
2022/07/25 00:41:27;;;;;;;6.03;5.43;;;27.40;88.50;;;;;;5034501;28;20057;-24
2022/07/25 00:43:52;;;;;;;6.20;5.50;;;27.40;88.50;;;;;;5033912;28;20037;-24
2022/07/25 00:46:18;;;;;;;6.03;5.43;;;27.40;88.40;;;;;;5033776;28;20433;-24
2022/07/25 00:48:44;;;;;;;7.80;5.93;;;27.40;88.40;;;;;;5033618;28;20030;-24
2022/07/25 00:51:10;;;;;;;6.88;5.50;;;27.40;88.40;;;;;;5033649;28;20021;-24
2022/07/25 00:53:38;;;;;;;6.00;5.40;;;27.40;88.40;;;;;;5033871;28;20441;-24
2022/07/25 00:56:04;;;;;;;6.35;5.75;;;27.40;88.40;;;;;;5033739;28;20029;-24
2022/07/25 00:58:30;;;;;;;6.10;5.50;;;27.40;88.30;;;;;;5033406;28;20029;-24
2022/07/25 01:00:57;;;;;;;6.05;5.45;;;27.40;88.40;;;;;;5033539;28;20542;-24
2022/07/25 01:03:23;;;;;;;6.20;5.60;;;27.40;88.40;;;;;;5033817;28;20040;-24
2022/07/25 01:05:49;;;;;;;7.18;6.40;;;27.40;88.50;;;;;;5033628;28;20029;-24
2022/07/25 01:08:17;;;;;;;6.15;5.55;;;27.30;88.50;;;;;;5015539;28;20086;-24
2022/07/25 01:10:44;;;;;;;6.53;5.90;;;27.30;88.40;;;;;;5015703;28;20025;-24
2022/07/25 01:13:10;;;;;;;8.07;5.60;;;27.30;88.40;;;;;;5032779;28;20391;-24
2022/07/25 01:15:36;;;;;;;6.72;6.03;;;27.30;88.40;;;;;;5033323;28;20167;-24
2022/07/25 01:18:01;;;;;;;6.28;5.68;;;27.30;88.50;;;;;;5033213;28;20100;-24
2022/07/25 01:20:28;;;;;;;6.40;5.80;;;27.30;88.40;;;;;;5033473;28;20428;-24
2022/07/25 01:22:55;;;;;;;6.57;5.55;;;27.40;88.50;;;;;;5033323;28;20028;-24
2022/07/25 01:25:22;;;;;;;7.03;5.80;;;27.40;88.50;;;;;;5032913;28;20048;-24
2022/07/25 01:27:49;;;;;;;7.00;5.93;;;27.40;88.50;;;;;;5033116;28;20033;-24
2022/07/25 01:30:16;;;;;;;7.07;6.38;;;27.30;88.30;;;;;;5033276;28;20022;-24
2022/07/25 01:32:43;;;;;;;6.40;5.65;;;27.40;88.40;;;;;;5032967;28;20037;-24
2022/07/25 01:35:09;;;;;;;6.07;5.57;;;27.40;88.40;;;;;;5015414;28;20475;-24
2022/07/25 01:37:35;;;;;;;6.40;5.80;;;27.40;88.40;;;;;;5032839;28;20033;-24
2022/07/25 01:40:01;;;;;;;6.38;5.78;;;27.30;88.30;;;;;;5032544;28;20032;-24
2022/07/25 01:42:27;;;;;;;6.38;5.78;;;27.40;88.40;;;;;;5033144;28;20413;-24
2022/07/25 01:44:53;;;;;;;5.90;5.32;;;27.30;88.30;;;;;;5014902;28;20029;-24
2022/07/25 01:47:19;;;;;;;6.45;5.85;;;27.30;88.60;;;;;;5032742;28;20018;-24
2022/07/25 01:49:45;;;;;;;6.10;5.50;;;27.30;88.40;;;;;;5032588;28;20022;-24
2022/07/25 01:52:11;;;;;;;6.72;6.03;;;27.30;88.50;;;;;;5032750;28;20059;-24
2022/07/25 01:54:37;;;;;;;6.07;5.57;;;27.30;88.50;;;;;;5032677;28;20037;-24
2022/07/25 01:57:03;;;;;;;6.10;5.50;;;27.20;88.50;;;;;;5032461;28;20026;-24
2022/07/25 01:59:29;;;;;;;6.70;5.95;;;27.20;88.50;;;;;;5032400;28;20486;-24
2022/07/25 02:01:55;;;;;;;6.82;6.15;;;27.20;88.50;;;;;;5032408;28;20029;-24
2022/07/25 02:04:21;;;;;;;6.15;5.55;;;27.20;88.50;;;;;;5032445;28;20037;-24
2022/07/25 02:06:46;;;;;;;7.72;6.10;;;27.20;88.50;;;;;;5032298;28;20033;-24
2022/07/25 02:09:12;;;;;;;6.60;6.00;;;27.20;88.50;;;;;;5032095;28;20026;-24
2022/07/25 02:11:38;;;;;;;6.28;5.35;;;27.20;88.50;;;;;;5032318;28;20029;-24
2022/07/25 02:14:03;;;;;;;6.18;5.57;;;27.30;88.60;;;;;;5014482;28;20116;-24
2022/07/25 02:16:29;;;;;;;7.22;5.90;;;27.20;88.50;;;;;;5032113;28;20061;-24
2022/07/25 02:18:55;;;;;;;6.30;5.70;;;27.20;88.60;;;;;;5031921;28;20083;-24
2022/07/25 02:21:20;;;;;;;6.68;5.80;;;27.20;88.50;;;;;;5032104;28;20033;-24
2022/07/25 02:23:46;;;;;;;9.05;6.20;;;27.20;88.50;;;;;;5032379;28;20487;-24
2022/07/25 02:26:13;;;;;;;7.38;6.20;;;27.20;88.50;;;;;;5031159;28;20037;-24
2022/07/25 02:28:39;;;;;;;6.38;5.80;;;27.20;88.50;;;;;;5031990;28;20025;-24
2022/07/25 02:31:05;;;;;;;6.45;5.85;;;27.20;88.50;;;;;;5032225;28;20048;-24
2022/07/25 02:33:30;;;;;;;6.32;5.70;;;27.20;88.50;;;;;;5032151;28;20466;-24
2022/07/25 02:35:56;;;;;;;6.60;5.95;;;27.20;88.50;;;;;;5015295;28;20024;-24
2022/07/25 02:38:22;;;;;;;5.72;5.10;;;27.20;88.50;;;;;;5038489;28;20036;-24
2022/07/25 02:40:49;;;;;;;6.90;6.13;;;27.20;88.50;;;;;;5035987;28;20165;-24
2022/07/25 02:43:15;;;;;;;6.80;6.03;;;27.20;88.50;;;;;;5032341;28;20040;-24
2022/07/25 02:45:41;;;;;;;6.75;6.15;;;27.20;88.50;;;;;;5031996;28;20032;-24
2022/07/25 02:48:07;;;;;;;7.93;6.07;;;27.20;88.50;;;;;;5032067;28;20021;-24
2022/07/25 02:50:35;;;;;;;7.57;6.03;;;27.20;88.50;;;;;;5031815;28;20031;-24
2022/07/25 02:53:00;;;;;;;6.53;5.82;;;27.20;88.50;;;;;;5031780;28;20108;-24
2022/07/25 02:55:26;;;;;;;6.43;5.55;;;27.10;88.40;;;;;;5031675;28;20136;-24
2022/07/25 02:57:52;;;;;;;6.30;5.70;;;27.10;88.50;;;;;;5014279;28;20027;-24
2022/07/25 03:00:18;;;;;;;6.22;5.63;;;27.20;88.50;;;;;;5031537;28;20437;-24
2022/07/25 03:02:44;;;;;;;6.05;5.45;;;27.20;88.50;;;;;;5014741;28;20072;-24
2022/07/25 03:05:11;;;;;;;6.85;6.25;;;27.10;88.50;;;;;;5031678;28;20490;-24
2022/07/25 03:07:37;;;;;;;6.72;6.00;;;27.10;88.50;;;;;;5031614;28;20020;-24
2022/07/25 03:10:05;;;;;;;8.13;6.05;;;27.10;88.50;;;;;;5031661;28;20026;-24
2022/07/25 03:12:33;;;;;;;6.45;5.80;;;27.10;88.50;;;;;;5031872;28;20022;-24
2022/07/25 03:15:00;;;;;;;6.63;5.95;;;27.10;88.50;;;;;;5031805;28;20382;-24
2022/07/25 03:17:27;;;;;;;6.50;5.90;;;27.10;88.50;;;;;;5031731;28;20021;-24
2022/07/25 03:19:53;;;;;;;6.00;5.40;;;27.10;88.50;;;;;;5032039;28;20040;-24
2022/07/25 03:22:19;;;;;;;6.45;5.95;;;27.10;88.50;;;;;;5031461;28;20033;-24
2022/07/25 03:24:45;;;;;;;6.53;5.82;;;27.10;88.50;;;;;;5031501;28;20028;-24
2022/07/25 03:27:10;;;;;;;6.38;5.88;;;27.10;88.50;;;;;;5031819;28;20048;-24
2022/07/25 03:29:36;;;;;;;7.63;5.63;;;27.10;88.50;;;;;;5031770;28;20032;-24
2022/07/25 03:32:03;;;;;;;6.25;5.60;;;27.10;88.50;;;;;;5031761;28;20478;-24
2022/07/25 03:34:28;;;;;;;6.75;5.93;;;27.00;88.40;;;;;;5031791;28;20528;-24
2022/07/25 03:36:54;;;;;;;7.15;5.72;;;27.00;88.40;;;;;;5033703;28;20022;-24
2022/07/25 03:39:20;;;;;;;6.40;5.80;;;27.00;88.40;;;;;;5034991;28;20029;-24
2022/07/25 03:41:46;;;;;;;7.85;5.65;;;27.10;88.50;;;;;;5035067;28;20545;-24
2022/07/25 03:44:12;;;;;;;6.32;5.72;;;27.00;88.40;;;;;;5034848;28;20033;-24
2022/07/25 03:46:38;;;;;;;6.20;5.60;;;27.00;88.50;;;;;;5034797;28;20029;-24
2022/07/25 03:49:04;;;;;;;6.63;5.95;;;27.00;89.20;;;;;;5035004;28;20395;-24
2022/07/25 03:51:29;;;;;;;6.50;5.90;;;27.00;88.50;;;;;;5034909;28;20478;-24
2022/07/25 03:54:01;;;;;;;6.82;6.22;;;27.00;88.50;;;;;;5035349;28;20105;-24
2022/07/25 03:56:30;;;;;;;6.65;6.00;;;27.00;88.50;;;;;;5034728;28;20479;-24
2022/07/25 03:58:56;;;;;;;6.90;5.55;;;27.00;88.50;;;;;;5034449;28;20037;-24
2022/07/25 04:01:22;;;;;;;6.65;5.95;;;27.00;88.50;;;;;;5034757;28;20430;-24
2022/07/25 04:03:47;;;;;;;6.28;5.68;;;26.90;88.40;;;;;;5035450;28;20029;-24
2022/07/25 04:06:13;;;;;;;6.13;5.60;;;26.90;88.50;;;;;;5035801;28;20100;-24
2022/07/25 04:08:39;;;;;;;6.43;5.82;;;26.90;88.50;;;;;;5000768;28;20023;-24
2022/07/25 04:11:05;;;;;;;6.65;6.00;;;26.90;88.50;;;;;;5035093;28;20036;-24
2022/07/25 04:13:31;;;;;;;6.53;5.82;;;26.90;88.60;;;;;;5034778;28;20025;-24
2022/07/25 04:15:56;;;;;;;6.00;5.40;;;26.90;88.60;;;;;;5034629;28;20037;-24
2022/07/25 04:18:22;;;;;;;6.93;5.88;;;26.80;88.60;;;;;;5034124;28;20101;-24
2022/07/25 04:20:48;;;;;;;6.68;5.82;;;26.90;88.70;;;;;;5034260;28;20033;-24
2022/07/25 04:23:14;;;;;;;6.28;5.78;;;26.80;88.60;;;;;;5034758;28;20033;-24
2022/07/25 04:25:39;;;;;;;6.25;5.65;;;26.80;88.60;;;;;;5034632;28;20045;-24
2022/07/25 04:28:05;;;;;;;6.25;5.65;;;26.80;88.70;;;;;;5035185;28;20459;-24
2022/07/25 04:30:31;;;;;;;6.28;5.78;;;26.80;88.70;;;;;;5035142;28;20021;-24
2022/07/25 04:32:56;;;;;;;6.97;6.28;;;26.80;88.70;;;;;;5034004;28;20029;-24
2022/07/25 04:35:22;;;;;;;7.25;6.55;;;26.80;88.80;;;;;;5016098;28;20059;-24
2022/07/25 04:37:48;;;;;;;6.85;6.15;;;26.80;88.80;;;;;;5016276;28;20059;-24
2022/07/25 04:40:14;;;;;;;8.32;5.70;;;26.80;88.80;;;;;;5034479;28;20053;-24
2022/07/25 04:42:39;;;;;;;6.40;5.88;;;26.70;88.70;;;;;;5034297;28;20025;-25
2022/07/25 04:45:05;;;;;;;6.57;5.88;;;26.70;88.70;;;;;;5033749;28;20441;-25
2022/07/25 04:47:31;;;;;;;7.47;5.80;;;26.70;88.70;;;;;;5033302;28;20037;-25
2022/07/25 04:49:57;;;;;;;6.30;5.78;;;26.70;88.70;;;;;;5033312;28;20483;-25
2022/07/25 04:52:22;;;;;;;6.47;5.88;;;26.70;88.70;;;;;;5016184;28;20026;-25
2022/07/25 04:54:48;;;;;;;7.00;6.28;;;26.70;88.80;;;;;;5033534;28;20030;-25
2022/07/25 04:57:14;;;;;;;5.97;5.47;;;26.70;88.80;;;;;;5033749;28;20451;-25
2022/07/25 04:59:39;;;;;;;6.80;6.00;;;26.70;88.80;;;;;;5033416;28;20025;-25
2022/07/25 05:02:05;;;;;;;7.35;6.25;;;26.70;88.80;;;;;;5033510;28;20029;-25
2022/07/25 05:04:31;;;;;;;6.40;5.80;;;26.70;88.80;;;;;;5033220;28;20116;-25
2022/07/25 05:06:56;;;;;;;6.28;5.68;;;26.70;88.80;;;;;;5033593;28;20037;-25
2022/07/25 05:09:22;;;;;;;6.38;5.78;;;26.70;88.80;;;;;;5033211;28;20044;-25
2022/07/25 05:11:48;;;;;;;6.22;5.63;;;26.70;88.90;;;;;;5033602;28;20037;-24
2022/07/25 05:14:13;;;;;;;6.75;6.05;;;26.70;88.90;;;;;;5033420;28;20490;-24
2022/07/25 05:16:39;;;;;;;6.32;5.72;;;26.70;88.80;;;;;;5033134;28;20036;-24
2022/07/25 05:19:05;;;;;;;6.20;5.60;;;26.70;88.90;;;;;;5033123;28;20026;-24
2022/07/25 05:21:31;;;;;;;7.13;6.43;;;26.70;88.90;;;;;;5033222;28;20037;-24
2022/07/25 05:23:57;;;;;;;6.88;6.03;;;26.60;88.80;;;;;;5033190;28;20312;-24
2022/07/25 05:26:22;;;;;;;10.48;6.43;;;26.50;88.20;;;;;;5055572;22;20045;-25
2022/07/25 05:28:48;;;;;;;7.82;6.68;;;26.10;89.00;;;;;;5031957;28;20144;-25
2022/07/25 05:31:14;;;;;;;10.52;6.57;;;25.70;90.00;;;;;;5032061;28;20048;-25
2022/07/25 05:33:39;;;;;;;7.95;6.43;;;25.40;90.30;;;;;;5031908;28;20441;-25
2022/07/25 05:36:07;;;;;;;10.48;6.70;;;25.10;90.70;;;;;;5031969;28;20021;-25
2022/07/25 05:38:33;;;;;;;7.82;6.85;;;25.00;91.00;;;;;;5031769;28;20097;-25
2022/07/25 05:40:58;;;;;;;8.57;6.45;;;24.90;91.30;;;;;;5031909;28;20119;-25
2022/07/25 05:43:24;;;;;;;6.95;6.20;;;24.90;91.50;;;;;;5031883;28;20035;-25
2022/07/25 05:45:50;;;;;;;10.27;6.60;;;24.80;91.60;;;;;;5031657;28;20036;-25
2022/07/25 05:48:16;;;;;;;10.52;6.88;;;24.70;92.00;;;;;;5031500;28;20072;-25
2022/07/25 05:50:42;;;;;;;8.35;6.40;;;24.70;92.30;;;;;;5031779;28;20474;-25
2022/07/25 05:53:08;;;;;;;10.18;6.95;;;24.80;92.90;;;;;;5031806;28;20025;-25
2022/07/25 05:55:34;;;;;;;11.25;6.72;;;24.70;92.60;;;;;;5031675;28;20025;-25
2022/07/25 05:57:59;;;;;;;15.82;7.10;;;24.80;92.80;;;;;;5031592;28;20057;-25
2022/07/25 06:00:25;;;;;;;11.80;6.80;;;24.80;92.90;;;;;;5031360;28;20104;-25
2022/07/25 06:02:52;;;;;;;14.73;7.25;;;24.80;92.90;;;;;;5031459;28;20424;-25
2022/07/25 06:05:17;;;;;;;9.48;6.20;;;24.90;93.00;;;;;;5031463;28;20029;-25
2022/07/25 06:07:43;;;;;;;10.93;6.35;;;24.90;92.50;;;;;;5031489;28;20018;-25
2022/07/25 06:10:09;;;;;;;8.38;6.18;;;24.90;92.30;;;;;;5031272;28;20021;-25
2022/07/25 06:12:34;;;;;;;13.07;7.20;;;25.00;92.10;;;;;;5031536;28;20033;-25
2022/07/25 06:15:00;;;;;;;10.75;6.18;;;25.10;91.90;;;;;;5031331;28;20067;-25
2022/07/25 06:17:26;;;;;;;7.93;6.38;;;25.20;91.70;;;;;;5031221;28;20032;-26
2022/07/25 06:19:51;;;;;;;7.25;5.85;;;25.20;91.50;;;;;;5031161;28;20032;-26
2022/07/25 06:22:18;;;;;;;13.00;6.07;;;25.30;91.30;;;;;;5031333;28;20033;-26
2022/07/25 06:24:44;;;;;;;9.07;6.45;;;25.40;91.20;;;;;;5031233;28;20056;-26
2022/07/25 06:27:10;;;;;;;10.40;6.25;;;25.50;91.10;;;;;;4993386;28;1109893;-26
2022/07/25 06:29:37;;;;;;;7.20;5.88;;;25.60;91.00;;;;;;5031781;28;20018;-26
2022/07/25 06:32:03;;;;;;;7.95;6.38;;;25.70;90.80;;;;;;5031906;28;20080;-26
2022/07/25 06:34:29;;;;;;;9.18;6.07;;;25.80;90.70;;;;;;5031998;28;20034;-26
2022/07/25 06:36:56;;;;;;;10.60;5.85;;;25.90;90.60;;;;;;5031925;28;20072;-26
2022/07/25 06:39:23;;;;;;;8.73;6.45;;;25.90;90.50;;;;;;5031728;28;20021;-26
2022/07/25 06:41:50;;;;;;;7.53;5.85;;;26.00;90.50;;;;;;5031918;28;20498;-26
2022/07/25 06:44:22;;;;;;;10.82;6.78;;;26.00;90.40;;;;;;5031715;28;20082;-26
2022/07/25 06:46:48;;;;;;;8.75;6.65;;;26.10;90.40;;;;;;5031743;28;20387;-26
2022/07/25 06:49:14;;;;;;;14.05;7.47;;;26.10;90.40;;;;;;5031608;28;20033;-26
2022/07/25 06:51:39;;;;;;;7.40;6.35;;;26.00;90.60;;;;;;5031846;28;20037;-26
2022/07/25 06:54:05;;;;;;;10.10;6.78;;;25.80;90.70;;;;;;5031689;28;20053;-26
2022/07/25 06:56:31;;;;;;;8.93;7.20;;;25.90;90.80;;;;;;5031690;28;20029;-26
2022/07/25 06:58:58;;;;;;;9.88;7.13;;;26.00;90.70;;;;;;5031395;28;20036;-26
2022/07/25 07:01:24;;;;;;;12.98;6.50;;;26.00;90.60;;;;;;5031695;28;20390;-26
2022/07/25 07:03:49;;;;;;;11.80;6.78;;;26.10;90.50;;;;;;5031633;28;20021;-26
2022/07/25 07:06:15;;;;;;;7.63;6.28;;;26.10;90.40;;;;;;5031653;28;20386;-26
2022/07/25 07:08:41;;;;;;;7.72;6.65;;;26.10;90.40;;;;;;5031453;28;20017;-26
2022/07/25 07:11:06;;;;;;;7.68;6.63;;;26.20;90.40;;;;;;5032435;28;20028;-26
2022/07/25 07:13:33;;;;;;;9.00;6.70;;;26.20;90.40;;;;;;5035421;28;20513;-26
2022/07/25 07:15:58;;;;;;;8.07;6.45;;;26.20;90.30;;;;;;5035456;28;20032;-26
2022/07/25 07:18:24;;;;;;;7.82;6.60;;;26.20;90.30;;;;;;5035400;28;20029;-26
2022/07/25 07:20:51;;;;;;;8.38;6.45;;;26.30;90.30;;;;;;5035750;28;20482;-26
2022/07/25 07:23:16;;;;;;;8.27;6.65;;;26.30;90.30;;;;;;5035716;28;20022;-26
2022/07/25 07:25:42;;;;;;;9.32;6.97;;;26.30;90.30;;;;;;5035019;28;20045;-26
2022/07/25 07:28:08;;;;;;;8.48;6.68;;;26.30;90.30;;;;;;5035003;28;20029;-26
2022/07/25 07:30:34;;;;;;;7.90;6.32;;;26.30;90.20;;;;;;5035171;28;20026;-26
2022/07/25 07:32:59;;;;;;;10.68;6.40;;;26.30;90.20;;;;;;5035246;28;20029;-26
2022/07/25 07:35:25;;;;;;;6.60;6.00;;;26.40;90.20;;;;;;5035049;28;20028;-26
2022/07/25 07:37:51;;;;;;;7.32;6.00;;;26.40;90.20;;;;;;5035071;28;20025;-26
2022/07/25 07:40:17;;;;;;;7.57;6.00;;;26.40;90.20;;;;;;5034908;28;20030;-26
2022/07/25 07:42:45;;;;;;;6.82;5.95;;;26.50;90.20;;;;;;5034956;28;20021;-26
2022/07/25 07:45:17;;;;;;;11.70;6.13;;;26.40;90.10;;;;;;5034844;28;20025;-26
2022/07/25 07:47:46;;;;;;;6.35;5.75;;;26.40;90.20;;;;;;5035212;28;20423;-26
2022/07/25 07:50:13;;;;;;;6.45;5.78;;;26.40;90.20;;;;;;5034725;28;20125;-26
2022/07/25 07:52:39;;;;;;;7.47;5.72;;;26.50;90.20;;;;;;5034832;28;20022;-26
2022/07/25 07:57:50;;;;;;;6.20;5.60;;;26.50;90.20;;;;;;5034716;28;20595;-26
2022/07/25 08:00:16;;;;;;;8.95;5.88;;;26.50;90.20;;;;;;5034733;28;20057;-26
2022/07/25 08:02:48;;;;;;;7.68;6.13;;;26.50;90.20;;;;;;5034620;28;20056;-26
2022/07/25 08:05:29;;;;;;;6.53;5.55;;;26.50;90.20;;;;;;5034483;28;20589;-26
2022/07/25 08:07:55;;;;;;;7.15;5.45;;;26.50;90.20;;;;;;5034362;28;20028;-26
2022/07/25 08:10:23;;;;;;;6.30;5.70;;;26.50;90.20;;;;;;5034246;28;20027;-26
2022/07/25 08:12:50;;;;;;;6.30;5.18;;;26.50;90.20;;;;;;5034408;28;20030;-26
2022/07/25 08:15:16;;;;;;;6.03;5.45;;;26.60;90.20;;;;;;5016511;28;20033;-26
2022/07/25 08:17:42;;;;;;;6.53;5.57;;;26.60;90.20;;;;;;5034485;28;20086;-26
2022/07/25 08:20:09;;;;;;;7.05;5.63;;;26.60;90.20;;;;;;5034094;28;20025;-26
2022/07/25 08:22:39;;;;;;;7.30;5.60;;;26.60;90.20;;;;;;5032938;28;20076;-26
2022/07/25 08:25:09;;;;;;;5.85;5.07;;;26.50;90.20;;;;;;5033908;28;20028;-26
2022/07/25 08:27:35;;;;;;;7.50;5.70;;;26.60;90.20;;;;;;5034170;28;20479;-26
2022/07/25 08:30:06;;;;;;;6.00;5.38;;;26.60;90.20;;;;;;5033949;28;20030;-26
2022/07/25 08:32:32;;;;;;;7.38;5.57;;;26.60;90.20;;;;;;5034540;28;20032;-26
2022/07/25 08:34:58;;;;;;;6.13;5.53;;;26.60;90.20;;;;;;5033887;28;20029;-26
2022/07/25 08:37:24;;;;;;;6.88;5.63;;;26.60;90.20;;;;;;5034053;28;20036;-26
2022/07/25 08:39:51;;;;;;;6.25;5.63;;;26.60;90.20;;;;;;5033648;28;20506;-26
2022/07/25 08:42:18;;;;;;;6.63;5.65;;;26.60;90.20;;;;;;5033879;28;20095;-26
2022/07/25 08:44:49;;;;;;;5.95;5.32;;;26.60;90.20;;;;;;5033820;28;20033;-26
2022/07/25 08:47:16;;;;;;;5.88;5.28;;;26.60;90.20;;;;;;5033724;28;20071;-26
2022/07/25 08:49:42;;;;;;;7.60;5.55;;;26.70;90.20;;;;;;5033476;28;20049;-26
2022/07/25 08:52:08;;;;;;;7.78;5.88;;;26.70;90.20;;;;;;5033770;28;20434;-26
2022/07/25 08:54:34;;;;;;;6.97;5.57;;;26.70;90.20;;;;;;5033863;28;20430;-26
2022/07/25 08:57:00;;;;;;;5.65;5.13;;;26.70;90.10;;;;;;5033572;28;20104;-26
2022/07/25 08:59:25;;;;;;;7.93;5.50;;;26.70;90.10;;;;;;5033342;28;20108;-26
2022/07/25 09:01:51;;;;;;;6.00;5.47;;;26.80;90.10;;;;;;5033383;28;20030;-26
2022/07/25 09:04:17;;;;;;;5.32;4.80;;;26.80;90.10;;;;;;5033362;28;20086;-26
2022/07/25 09:06:50;;;;;;;5.82;4.30;;;26.80;90.00;;;;;;5033435;28;20697;-26
2022/07/25 09:09:15;;;;;;;6.60;4.75;;;27.10;83.60;;;;;;5033157;28;20079;-26
2022/07/25 09:11:41;;;;;;;8.02;4.75;;;27.40;83.20;;;;;;5033375;28;20033;-26
2022/07/25 09:14:10;;;;;;;6.53;5.47;;;27.70;83.40;;;;;;5033348;28;20441;-26
2022/07/25 09:16:41;;;;;;;7.05;5.30;;;27.80;83.80;;;;;;5033005;28;20476;-26
2022/07/25 09:19:17;;;;;;;6.28;5.68;;;27.80;84.00;;;;;;5033050;28;20029;-26
2022/07/25 09:21:45;;;;;;;6.88;5.68;;;27.90;85.00;;;;;;5033474;28;20080;-26
2022/07/25 09:24:16;;;;;;;8.45;5.20;;;27.90;84.40;;;;;;5015177;28;20108;-26
2022/07/25 09:26:53;;;;;;;8.38;6.05;;;27.90;84.50;;;;;;5032864;28;20383;-26
2022/07/25 09:29:25;;;;;;;7.18;5.90;;;27.90;84.60;;;;;;5032856;28;20029;-26
2022/07/25 09:31:54;;;;;;;6.32;5.72;;;27.90;84.70;;;;;;5032952;28;20085;-26
2022/07/25 09:34:33;;;;;;;6.25;5.65;;;27.90;84.80;;;;;;5032524;28;20544;-26
2022/07/25 09:37:01;;;;;;;6.05;5.45;;;27.90;84.80;;;;;;5032779;28;20028;-26
2022/07/25 09:39:42;;;;;;;6.38;5.43;;;27.90;84.90;;;;;;5032521;28;20022;-26
2022/07/25 09:42:22;;;;;;;6.10;5.50;;;28.00;85.00;;;;;;5032789;28;20087;-26
2022/07/25 09:45:00;;;;;;;5.88;5.13;;;27.90;85.00;;;;;;5032663;28;20025;-26
2022/07/25 09:47:26;;;;;;;7.00;5.28;;;27.90;85.00;;;;;;5032617;28;20018;-26
2022/07/25 09:49:52;;;;;;;5.90;5.30;;;27.90;85.10;;;;;;5032271;28;20041;-26
2022/07/25 09:52:18;;;;;;;5.47;4.90;;;27.90;85.20;;;;;;5032635;28;20025;-26
2022/07/25 09:54:44;;;;;;;5.03;4.53;;;27.90;85.20;;;;;;5032527;28;20100;-26
2022/07/25 09:57:10;;;;;;;5.20;4.70;;;27.90;85.20;;;;;;5032500;28;20116;-26
2022/07/25 09:59:36;;;;;;;5.68;5.10;;;27.90;85.30;;;;;;5032602;28;20409;-26
2022/07/25 10:02:08;;;;;;;6.30;5.40;;;27.80;85.40;;;;;;5032418;28;20025;-26
2022/07/25 10:04:39;;;;;;;5.78;5.18;;;27.90;85.50;;;;;;5032168;28;20463;-26
2022/07/25 10:07:08;;;;;;;6.55;4.88;;;27.80;85.40;;;;;;5032259;28;20076;-26
2022/07/25 10:09:46;;;;;;;5.18;4.68;;;27.80;85.40;;;;;;5032064;28;20072;-26
2022/07/25 10:12:14;;;;;;;6.40;5.13;;;27.80;85.50;;;;;;5032308;28;20017;-26
2022/07/25 10:14:40;;;;;;;5.50;5.00;;;27.80;85.50;;;;;;5032210;28;20030;-26
2022/07/25 10:17:06;;;;;;;5.05;4.57;;;27.80;85.60;;;;;;5032056;28;20029;-26
2022/07/25 10:19:46;;;;;;;5.22;4.80;;;27.80;85.60;;;;;;5032230;28;20086;-26
2022/07/25 10:22:13;;;;;;;5.13;4.63;;;27.80;85.60;;;;;;5032197;28;20025;-26
2022/07/25 10:24:43;;;;;;;5.03;4.47;;;27.90;85.60;;;;;;5032032;28;20028;-26
2022/07/25 10:27:12;;;;;;;5.63;4.65;;;27.80;85.50;;;;;;5032360;28;20034;-26
2022/07/25 10:29:39;;;;;;;5.03;4.53;;;27.90;85.60;;;;;;5032237;28;20026;-26
2022/07/25 10:32:10;;;;;;;6.28;5.05;;;27.90;85.60;;;;;;5032013;28;20021;-26
2022/07/25 10:34:37;;;;;;;5.18;4.53;;;27.90;85.60;;;;;;5031879;28;20447;-26
2022/07/25 10:37:15;;;;;;;5.10;4.60;;;27.90;85.60;;;;;;5031785;28;20075;-26
2022/07/25 10:39:43;;;;;;;5.32;4.68;;;27.90;85.60;;;;;;5031713;28;20054;-25
2022/07/25 10:42:16;;;;;;;5.20;4.70;;;27.90;85.60;;;;;;5031897;28;20029;-25
2022/07/25 10:44:48;;;;;;;5.05;4.53;;;27.90;85.50;;;;;;5031834;28;20501;-26
2022/07/25 10:47:15;;;;;;;4.47;4.07;;;27.90;85.40;;;;;;5034623;28;20509;-26
2022/07/25 10:49:48;;;;;;;4.57;4.18;;;27.90;85.40;;;;;;5035807;28;20057;-25
2022/07/25 10:52:16;;;;;;;5.50;4.63;;;27.90;85.40;;;;;;5018247;28;20060;-25
2022/07/25 10:54:53;;;;;;;5.32;4.82;;;27.90;85.40;;;;;;5036249;28;20151;-26
2022/07/25 10:57:19;;;;;;;5.05;4.63;;;28.00;85.40;;;;;;5035776;28;20044;-26
2022/07/25 10:59:45;;;;;;;4.78;4.38;;;28.00;85.40;;;;;;5035610;28;20426;-26
2022/07/25 11:02:17;;;;;;;5.10;4.60;;;28.00;86.00;;;;;;5036047;28;20473;-26
2022/07/25 11:05:04;;;;;;;4.95;4.45;;;28.00;85.20;;;;;;5035603;28;20021;-26
2022/07/25 11:07:36;;;;;;;4.88;4.20;;;28.00;85.20;;;;;;5035316;28;20025;-26
2022/07/25 11:10:04;;;;;;;5.15;4.65;;;28.00;85.10;;;;;;5035449;28;20022;-26
2022/07/25 11:12:30;;;;;;;4.57;4.18;;;28.00;85.10;;;;;;5035599;28;20025;-26
2022/07/25 11:15:05;;;;;;;4.93;4.47;;;28.10;85.00;;;;;;5017700;28;20372;-26
2022/07/25 11:17:31;;;;;;;6.28;4.47;;;28.10;85.00;;;;;;5035290;28;20406;-26
2022/07/25 11:20:04;;;;;;;5.25;3.92;;;28.10;84.90;;;;;;5035215;28;20071;-26
2022/07/25 11:22:31;;;;;;;4.35;3.95;;;28.10;84.80;;;;;;5035539;28;20049;-26
2022/07/25 11:24:58;;;;;;;5.03;4.50;;;28.10;85.50;;;;;;5035291;28;20112;-26
2022/07/25 11:27:26;;;;;;;5.28;4.25;;;28.20;85.60;;;;;;5058296;22;20525;-25
2022/07/25 11:29:53;;;;;;;4.53;4.13;;;28.20;84.70;;;;;;5035700;28;20021;-24
2022/07/25 11:32:19;;;;;;;5.45;4.43;;;28.30;84.70;;;;;;5035223;28;20437;-24
2022/07/25 11:34:52;;;;;;;6.03;4.30;;;28.30;84.60;;;;;;5035722;28;20021;-24
2022/07/25 11:37:19;;;;;;;4.82;4.43;;;28.30;85.10;;;;;;5035552;28;20036;-24
2022/07/25 11:39:46;;;;;;;4.65;4.25;;;28.30;84.60;;;;;;5017315;28;20406;-24
2022/07/25 11:42:17;;;;;;;4.03;3.65;;;28.30;84.60;;;;;;5035444;28;20098;-24
2022/07/25 11:44:47;;;;;;;4.60;4.20;;;28.30;84.50;;;;;;5035336;28;20033;-24
2022/07/25 11:47:24;;;;;;;4.38;3.97;;;28.30;84.50;;;;;;5035346;28;20022;-24
2022/07/25 11:49:53;;;;;;;4.47;4.07;;;28.40;84.50;;;;;;5035700;28;20386;-24
2022/07/25 11:52:26;;;;;;;4.68;4.28;;;28.30;84.40;;;;;;5017995;28;20022;-25
2022/07/25 11:54:51;;;;;;;4.45;4.05;;;28.30;84.40;;;;;;5035973;28;20482;-25
2022/07/25 11:57:25;;;;;;;4.93;4.43;;;28.30;84.50;;;;;;5035141;28;20032;-24
2022/07/25 11:59:52;;;;;;;4.05;3.75;;;28.30;84.60;;;;;;5035549;28;20029;-24
2022/07/25 12:02:33;;;;;;;4.40;4.00;;;28.20;84.60;;;;;;5017864;28;20403;-25
2022/07/25 12:05:02;;;;;;;4.65;4.18;;;28.20;84.60;;;;;;5034875;28;20029;-25
2022/07/25 12:07:54;;;;;;;4.70;4.30;;;28.20;84.80;;;;;;5035174;28;20048;-24
2022/07/25 12:10:33;;;;;;;4.85;4.35;;;28.20;84.80;;;;;;5032324;28;20040;-24
2022/07/25 12:13:02;;;;;;;4.47;4.07;;;28.20;84.80;;;;;;5035804;28;20433;-24
2022/07/25 12:15:31;;;;;;;4.68;2.95;;;28.10;84.80;;;;;;5016913;28;20087;-25
2022/07/25 12:17:57;;;;;;;6.72;3.35;;;28.60;75.60;;;;;;5034664;28;20480;-25
2022/07/25 12:20:31;;;;;;;4.18;3.30;;;28.90;75.10;;;;;;5034285;28;20482;-24
2022/07/25 12:23:00;;;;;;;8.50;3.28;;;28.90;75.60;;;;;;5036681;28;20080;-25
2022/07/25 12:25:28;;;;;;;8.57;3.65;;;28.90;76.30;;;;;;5034328;28;20049;-25
2022/07/25 12:27:54;;;;;;;4.75;3.60;;;28.80;77.00;;;;;;5034817;28;20025;-25
2022/07/25 12:30:20;;;;;;;5.32;3.40;;;28.80;77.80;;;;;;5035847;28;20021;-25
2022/07/25 12:32:45;;;;;;;5.00;3.80;;;28.60;78.20;;;;;;5035712;28;20124;-25
2022/07/25 12:35:13;;;;;;;7.70;3.60;;;28.50;78.70;;;;;;5034812;28;20083;-24
2022/07/25 12:37:42;;;;;;;5.85;3.80;;;28.40;79.20;;;;;;5016801;28;20550;-24
2022/07/25 12:40:08;;;;;;;5.43;3.72;;;28.40;80.50;;;;;;5017076;28;20029;-25
2022/07/25 12:42:34;;;;;;;4.70;3.58;;;28.30;80.00;;;;;;5034412;28;20036;-25
2022/07/25 12:45:00;;;;;;;4.85;3.50;;;28.20;80.30;;;;;;5016733;28;20033;-24
2022/07/25 12:47:27;;;;;;;6.95;3.75;;;28.20;80.60;;;;;;5035354;28;20394;-24